Ulqini, Mali i Zi

07:01 PM CEST on korrik 24, 2014 (GMT +0200)
Rinas (LATI) Elev 125 ft | 41.42 °N, 19.72 °E | Change Station

Current weather conditions updated 11 minutes ago

Partly Cloudy
pjeserisht me re
79 °F
Feels Like 79 °F
N
6
Era e paqendrueshme Era from Veri

Tomorrow is forecast to be Much Cooler than today.

Sot
High -- | Low -- °F
--% Chance of Precip.
Yesterday
High -- | Low -- °F
Precip. -- ne
5:28 AM 8:09 PM
Waning Crescent, 5% visible
Presioni 29.83 ne
Visioni 6.2 milje
Clouds Few 2500 ft
Pika E Veses 64 °F
Lageshtira E ajrit 61%
Rainfall 0.00 ne
Snow Depth Not available.
UV 1 out of 12
Pollen Not available.
Air Quality Not available.
Flu Activity Not available.
METAR LATI 241650Z 35005KT 9999 FEW025 26/18 Q1010 NOSIG

More Conditions Fewer Conditions

Presioni 29.83 ne
Visioni 6.2 milje
Clouds Few 2500 ft
Pika E Veses 64 °F
Lageshtira E ajrit 61%
Rainfall 0.00 ne
Snow Depth Not available.
UV 1 out of 12
Pollen Not available.
Air Quality Not available.
Flu Activity Not available.
METAR LATI 241650Z 35005KT 9999 FEW025 26/18 Q1010 NOSIG

More Conditions Fewer Conditions

10-Day Weather Forecast

Almanac

Astronomy

Jul. 24, 2014 Rise Set
Actual Time 5:28 AM CEST 8:09 PM CEST
Civil Twilight 4:56 AM CEST 8:42 PM CEST
Nautical Twilight 4:15 AM CEST 9:22 PM CEST
Astronomical Twilight 3:29 AM CEST 10:08 PM CEST
Moon 3:21 AM CEST 6:11 PM CEST
Length Of Visible Light 15h 45m
Length of Day
14h 41m
Tomorrow will be 1m 52s shorter.
Waning Crescent, 5% of the Moon is Illuminated
Sot
Waning Crescent
Jul 26
New
Aug 3
First Quarter
Aug 10
Full
Aug 17
Last Quarter

Community

WunderPhotos

Upload Photos

1,737,071 photos uploaded!

Nearby

Snow Depth

Not available.

Earthquake Activity

City Distance Mag. Time & Date
No recent earthquake activity has been reported nearby.
Minimum magnitude displayed is 2.5.

Coastal Water Temperatures

Vend Temperatura
No Stations Reporting

Nearby Weather Stations

Station Location Temp Indeksi I Nxehtesise Pika E Veses Lageshtira E ajrit Era Precip. Elev te freskuara(Te Dhenat) Type
UlcinjCentar, Ulcinj 85.3 °F 87 °F - 49% Jug  tek  1.5 mph - / hr 223 ft 7:00 PM CEST Normal
BarCentar, Bar 85.3 °F 87 °F - 49% Jug  tek  1.5 mph - / hr 13 ft 7:00 PM CEST Normal

Show More Stations Show Fewer Stations